Time;durP1;ratioP1;P1;durP2;ratioP2;P2;SDS_P1;SDS_P2;PMS_P1;PMS_P2;Temp;Humidity;BMP_temperature;BMP_pressure;BME280_temperature;BME280_humidity;BME280_pressure;Samples;Min_cycle;Max_cycle;Signal;HPM_P1;HPM_P2
2022/09/30 00:02:15;;;;;;;4.20;3.80;;;10.10;99.90;;;;;;4976990;28;20248;-86
2022/09/30 00:04:40;;;;;;;8.77;4.00;;;10.10;99.90;;;;;;4980109;28;20213;-86
2022/09/30 00:07:06;;;;;;;4.33;3.70;;;10.10;99.90;;;;;;4995937;28;20249;-86
2022/09/30 00:09:32;;;;;;;4.33;3.93;;;10.10;99.90;;;;;;4979811;28;20191;-87
2022/09/30 00:11:58;;;;;;;5.50;4.53;;;10.00;99.90;;;;;;4979666;28;20180;-87
2022/09/30 00:14:24;;;;;;;7.53;4.63;;;10.10;99.90;;;;;;4976489;28;20180;-86
2022/09/30 00:16:50;;;;;;;5.30;4.20;;;10.10;99.90;;;;;;4978860;28;20214;-86
2022/09/30 00:19:16;;;;;;;5.37;3.90;;;10.00;99.90;;;;;;4995388;28;20179;-86
2022/09/30 00:21:42;;;;;;;7.30;4.40;;;10.10;99.90;;;;;;4979223;28;20187;-86
2022/09/30 00:24:08;;;;;;;7.47;4.00;;;10.00;99.90;;;;;;4979383;28;20206;-86
2022/09/30 00:26:34;;;;;;;5.23;4.47;;;10.00;99.90;;;;;;4979773;28;20206;-87
2022/09/30 00:29:01;;;;;;;5.17;3.70;;;10.00;99.90;;;;;;4979590;28;20186;-86
2022/09/30 00:31:31;;;;;;;6.33;4.70;;;10.00;99.90;;;;;;4979827;28;20261;-86
2022/09/30 00:34:05;;;;;;;5.33;4.10;;;10.00;99.90;;;;;;4995587;28;20179;-87
2022/09/30 00:36:46;;;;;;;6.77;4.37;;;10.00;99.90;;;;;;4979640;28;20205;-87
2022/09/30 00:39:15;;;;;;;5.93;4.10;;;9.90;99.90;;;;;;4979464;28;20186;-86
2022/09/30 00:41:42;;;;;;;4.30;3.90;;;9.90;99.90;;;;;;4995594;28;20254;-87
2022/09/30 00:44:49;;;;;;;4.37;3.97;;;9.90;99.90;;;;;;4979396;28;20263;-86
2022/09/30 00:47:24;;;;;;;5.47;4.00;;;9.80;99.90;;;;;;4979160;28;20187;-87
2022/09/30 00:49:51;;;;;;;4.80;3.87;;;9.80;99.90;;;;;;4979739;28;20173;-86
2022/09/30 00:52:18;;;;;;;6.17;4.10;;;9.90;99.90;;;;;;4995126;28;20193;-85
2022/09/30 00:54:44;;;;;;;4.73;4.20;;;9.90;99.90;;;;;;4978922;28;20283;-85
2022/09/30 00:57:10;;;;;;;6.13;3.60;;;9.90;99.90;;;;;;4978765;28;20187;-85
2022/09/30 00:59:46;;;;;;;3.57;3.27;;;9.90;99.90;;;;;;4979227;28;20179;-85
2022/09/30 01:02:13;;;;;;;4.27;3.33;;;9.90;99.90;;;;;;5012880;28;20186;-85
2022/09/30 01:04:41;;;;;;;4.40;3.30;;;9.80;99.90;;;;;;4978826;28;20203;-85
2022/09/30 01:07:09;;;;;;;4.83;3.60;;;9.90;99.90;;;;;;4978932;28;20684;-86
2022/09/30 01:09:39;;;;;;;6.10;3.57;;;9.90;99.90;;;;;;4979193;28;20210;-86
2022/09/30 01:12:17;;;;;;;3.87;3.40;;;9.90;99.90;;;;;;4979220;28;20247;-86
2022/09/30 01:14:46;;;;;;;5.63;3.27;;;9.80;99.90;;;;;;4979058;28;20183;-86
2022/09/30 01:17:49;;;;;;;4.60;3.03;;;9.80;99.90;;;;;;4978751;28;20203;-85
2022/09/30 01:20:50;;;;;;;7.17;3.20;;;9.70;99.90;;;;;;4978749;28;20191;-85
2022/09/30 01:23:55;;;;;;;4.20;3.50;;;9.70;99.90;;;;;;4975345;28;20317;-86
2022/09/30 01:26:33;;;;;;;4.50;3.47;;;9.60;99.90;;;;;;5007819;28;20230;-85
2022/09/30 01:29:17;;;;;;;5.27;3.30;;;9.60;99.90;;;;;;4975761;28;20276;-86
2022/09/30 01:32:01;;;;;;;4.40;2.93;;;9.60;99.90;;;;;;4978522;28;20184;-86
2022/09/30 01:34:49;;;;;;;3.70;3.17;;;9.60;99.90;;;;;;4979643;28;20203;-86
2022/09/30 01:37:28;;;;;;;4.13;3.13;;;9.60;99.90;;;;;;4979356;28;20264;-86
2022/09/30 01:40:08;;;;;;;4.27;3.60;;;9.70;99.90;;;;;;5011974;28;20172;-86
2022/09/30 01:43:03;;;;;;;3.67;3.10;;;9.60;99.90;;;;;;4979328;28;20202;-86
2022/09/30 01:45:41;;;;;;;4.43;3.03;;;9.70;99.90;;;;;;4981213;28;20223;-85
2022/09/30 01:48:19;;;;;;;3.83;3.00;;;9.70;99.90;;;;;;4982263;28;20179;-85
2022/09/30 01:50:58;;;;;;;3.37;3.07;;;9.70;99.90;;;;;;4982364;28;20168;-86
2022/09/30 01:53:54;;;;;;;4.17;3.60;;;9.70;99.90;;;;;;4982620;28;20244;-85
2022/09/30 01:56:40;;;;;;;4.20;3.13;;;9.60;99.90;;;;;;5009352;28;20211;-86
2022/09/30 01:59:20;;;;;;;5.33;3.23;;;9.60;99.90;;;;;;4981324;28;20179;-86
2022/09/30 02:01:57;;;;;;;4.07;3.43;;;9.60;99.90;;;;;;4982723;28;20266;-85
2022/09/30 02:04:35;;;;;;;4.63;3.23;;;9.60;99.90;;;;;;4982318;28;20179;-86
2022/09/30 02:07:07;;;;;;;3.90;3.60;;;9.60;99.90;;;;;;4998225;28;20682;-85
2022/09/30 02:09:42;;;;;;;5.43;2.83;;;9.60;99.90;;;;;;4981933;28;20203;-86
2022/09/30 02:12:14;;;;;;;3.97;3.20;;;9.60;99.90;;;;;;4982120;28;20191;-86
2022/09/30 02:14:55;;;;;;;6.13;3.30;;;9.60;99.90;;;;;;4998277;28;20251;-85
2022/09/30 02:17:41;;;;;;;3.67;3.30;;;9.60;99.90;;;;;;4998000;28;20179;-86
2022/09/30 02:20:25;;;;;;;4.37;2.97;;;9.60;99.90;;;;;;4998219;28;20175;-86
2022/09/30 02:23:09;;;;;;;5.97;3.77;;;9.50;99.90;;;;;;4982282;28;20187;-86
2022/09/30 02:25:41;;;;;;;3.57;3.27;;;9.50;99.90;;;;;;4981916;28;20350;-85
2022/09/30 02:28:14;;;;;;;4.43;3.27;;;9.40;99.90;;;;;;4978117;28;20413;-86
2022/09/30 02:30:46;;;;;;;3.90;3.50;;;9.40;99.90;;;;;;4994680;28;20663;-85
2022/09/30 02:33:18;;;;;;;3.57;3.27;;;9.40;99.90;;;;;;4995573;28;20190;-85
2022/09/30 02:35:53;;;;;;;5.90;3.70;;;9.40;99.90;;;;;;4978443;28;20208;-85
2022/09/30 02:38:23;;;;;;;4.10;3.70;;;9.30;99.90;;;;;;5010858;28;20186;-85
2022/09/30 02:40:51;;;;;;;5.43;3.87;;;9.30;99.90;;;;;;5010166;28;20180;-85
2022/09/30 02:43:19;;;;;;;4.20;3.77;;;9.30;99.90;;;;;;5013799;28;20269;-86
2022/09/30 02:46:02;;;;;;;3.97;3.57;;;9.30;99.90;;;;;;4981457;28;20307;-86
2022/09/30 02:48:58;;;;;;;4.17;3.77;;;9.30;99.90;;;;;;4981429;28;20211;-86
2022/09/30 02:51:45;;;;;;;8.57;4.13;;;9.30;99.90;;;;;;4977949;28;20652;-85
2022/09/30 02:54:27;;;;;;;4.63;3.63;;;9.20;99.90;;;;;;5011081;28;20210;-85
2022/09/30 02:57:08;;;;;;;3.93;3.63;;;9.20;99.90;;;;;;4977818;28;20235;-85
2022/09/30 02:59:34;;;;;;;4.27;3.80;;;9.20;99.90;;;;;;4997723;28;20171;-86
2022/09/30 03:02:00;;;;;;;4.57;3.80;;;9.10;99.90;;;;;;4981529;28;20229;-86
2022/09/30 03:04:29;;;;;;;5.97;3.77;;;9.10;99.90;;;;;;4982509;28;20179;-86
2022/09/30 03:06:55;;;;;;;4.90;3.73;;;9.10;99.90;;;;;;4981958;28;20235;-87
2022/09/30 03:09:27;;;;;;;4.13;3.70;;;9.10;99.90;;;;;;4981468;28;20225;-86
2022/09/30 03:12:09;;;;;;;9.27;4.17;;;9.10;99.90;;;;;;5028665;28;20176;-86
2022/09/30 03:15:02;;;;;;;4.40;3.73;;;9.10;99.90;;;;;;4980707;28;20190;-86
2022/09/30 03:17:35;;;;;;;5.33;3.70;;;9.20;99.90;;;;;;4977256;28;20215;-86
2022/09/30 03:20:34;;;;;;;4.90;4.30;;;9.10;99.90;;;;;;4991684;28;20191;-87
2022/09/30 03:23:10;;;;;;;4.63;4.23;;;9.10;99.90;;;;;;4997138;28;20229;-87
2022/09/30 03:25:55;;;;;;;4.97;4.10;;;9.10;99.90;;;;;;4996743;28;20238;-86
2022/09/30 03:28:33;;;;;;;4.93;4.43;;;8.90;99.90;;;;;;4980454;28;20198;-86
2022/09/30 03:31:16;;;;;;;6.30;4.23;;;8.90;99.90;;;;;;4980473;28;20199;-87
2022/09/30 03:33:57;;;;;;;4.63;4.03;;;8.90;99.90;;;;;;4980627;28;20283;-86
2022/09/30 03:36:32;;;;;;;5.23;3.90;;;8.90;99.90;;;;;;4996960;28;20201;-86
2022/09/30 03:39:10;;;;;;;4.37;3.57;;;8.90;99.90;;;;;;4980498;28;20214;-86
2022/09/30 03:42:19;;;;;;;5.13;4.63;;;8.90;99.90;;;;;;5009347;28;20278;-85
2022/09/30 03:45:03;;;;;;;5.10;4.00;;;8.90;99.90;;;;;;4956304;28;20222;-86
2022/09/30 03:47:43;;;;;;;8.30;4.50;;;9.00;99.90;;;;;;4993099;28;20187;-86
2022/09/30 03:50:18;;;;;;;5.50;4.40;;;9.00;99.90;;;;;;4980159;28;20194;-86
2022/09/30 03:52:44;;;;;;;5.53;3.83;;;9.00;99.90;;;;;;4979515;28;20254;-86
2022/09/30 03:55:11;;;;;;;7.03;4.60;;;9.00;99.90;;;;;;4979711;28;20245;-86
2022/09/30 03:57:38;;;;;;;6.60;4.83;;;9.00;99.90;;;;;;4979478;28;20180;-86
2022/09/30 04:00:06;;;;;;;5.03;4.50;;;9.00;99.90;;;;;;4996040;28;20179;-86
2022/09/30 04:02:42;;;;;;;5.43;4.30;;;9.00;99.90;;;;;;4978883;28;20179;-86
2022/09/30 04:05:08;;;;;;;6.20;4.30;;;9.00;99.90;;;;;;4978818;28;20242;-86
2022/09/30 04:07:34;;;;;;;12.73;4.93;;;9.00;99.90;;;;;;4993836;28;20218;-86
2022/09/30 04:10:01;;;;;;;7.50;5.00;;;9.00;99.90;;;;;;4994360;28;20183;-86
2022/09/30 04:12:27;;;;;;;5.13;4.33;;;9.00;99.90;;;;;;4974374;28;20218;-85
2022/09/30 04:14:53;;;;;;;8.27;4.20;;;9.00;99.90;;;;;;4974378;28;20218;-86
2022/09/30 04:17:21;;;;;;;5.70;4.40;;;8.90;99.90;;;;;;4990314;28;20226;-86
2022/09/30 04:19:48;;;;;;;5.03;4.03;;;8.90;99.90;;;;;;4996997;28;20206;-86
2022/09/30 04:22:15;;;;;;;7.13;5.00;;;8.80;99.90;;;;;;5024565;28;20199;-86
2022/09/30 04:24:42;;;;;;;5.73;4.13;;;8.80;99.90;;;;;;5006733;28;20202;-86
2022/09/30 04:27:10;;;;;;;7.00;4.03;;;8.70;99.90;;;;;;4974401;28;20295;-86
2022/09/30 04:29:36;;;;;;;6.30;4.60;;;8.60;99.90;;;;;;4977355;28;20182;-86
2022/09/30 04:32:02;;;;;;;6.90;5.60;;;8.60;99.90;;;;;;4977698;28;20179;-86
2022/09/30 04:34:28;;;;;;;8.10;5.60;;;8.60;99.90;;;;;;4977142;28;20175;-86
2022/09/30 04:36:53;;;;;;;5.30;4.80;;;8.70;99.90;;;;;;4994250;28;20195;-86
2022/09/30 04:39:19;;;;;;;7.57;5.30;;;8.70;99.90;;;;;;5009880;28;20198;-86
2022/09/30 04:41:45;;;;;;;7.97;4.77;;;8.70;99.90;;;;;;5009471;28;20631;-86
2022/09/30 04:44:12;;;;;;;10.27;5.80;;;8.70;99.90;;;;;;5010750;28;20204;-86
2022/09/30 04:46:38;;;;;;;8.33;6.00;;;8.70;99.90;;;;;;4973812;28;20310;-86
2022/09/30 04:49:04;;;;;;;6.47;5.10;;;8.80;99.90;;;;;;4997397;28;20262;-86
2022/09/30 04:51:31;;;;;;;9.00;4.73;;;8.80;99.90;;;;;;4977423;28;20232;-86
2022/09/30 04:53:57;;;;;;;5.00;4.50;;;8.80;99.90;;;;;;4992942;28;20222;-86
2022/09/30 04:56:25;;;;;;;4.93;4.40;;;8.90;99.90;;;;;;4993155;28;20203;-86
2022/09/30 04:58:52;;;;;;;6.23;5.17;;;8.90;99.90;;;;;;5010861;28;20235;-86
2022/09/30 05:01:18;;;;;;;7.93;4.90;;;9.00;99.90;;;;;;4973463;28;20227;-86
2022/09/30 05:03:44;;;;;;;6.30;4.80;;;9.00;99.90;;;;;;4988578;28;20179;-86
2022/09/30 05:06:11;;;;;;;12.10;5.57;;;9.00;99.90;;;;;;4976584;28;20211;-87
2022/09/30 05:08:37;;;;;;;7.23;5.37;;;9.00;99.90;;;;;;4993092;28;20233;-86
2022/09/30 05:11:09;;;;;;;7.23;5.20;;;9.00;99.90;;;;;;4993396;28;20343;-86
2022/09/30 05:13:37;;;;;;;8.50;5.37;;;9.00;99.90;;;;;;4992723;28;20240;-86
2022/09/30 05:16:04;;;;;;;6.80;5.37;;;9.00;99.90;;;;;;5009300;28;20203;-86
2022/09/30 05:18:32;;;;;;;5.90;5.30;;;9.00;99.90;;;;;;4976874;28;20183;-86
2022/09/30 05:20:59;;;;;;;10.20;6.10;;;9.00;99.90;;;;;;4977213;28;20195;-86
2022/09/30 05:23:27;;;;;;;8.77;5.50;;;9.00;99.90;;;;;;4993937;28;20187;-86
2022/09/30 05:25:53;;;;;;;11.67;6.10;;;9.00;99.90;;;;;;4977336;28;20219;-86
2022/09/30 05:28:20;;;;;;;9.23;6.33;;;9.00;99.90;;;;;;4979310;28;20172;-86
2022/09/30 05:30:48;;;;;;;11.57;7.43;;;9.00;99.90;;;;;;4980080;28;20203;-88
2022/09/30 05:33:15;;;;;;;9.63;6.73;;;9.10;99.90;;;;;;4978756;28;20179;-86
2022/09/30 05:35:42;;;;;;;8.43;6.90;;;9.10;99.90;;;;;;4994384;28;20237;-87
2022/09/30 05:38:09;;;;;;;11.97;7.23;;;9.10;99.90;;;;;;4992584;28;20206;-86
2022/09/30 05:40:39;;;;;;;11.20;7.30;;;9.10;99.90;;;;;;4995034;28;20206;-87
2022/09/30 05:43:06;;;;;;;11.83;7.20;;;9.10;99.90;;;;;;4976294;28;20187;-87
2022/09/30 05:45:39;;;;;;;13.23;6.87;;;9.10;99.90;;;;;;4978260;28;20305;-87
2022/09/30 05:48:06;;;;;;;15.87;7.37;;;9.10;99.90;;;;;;4989447;28;20176;-87
2022/09/30 05:50:33;;;;;;;11.27;7.27;;;9.10;99.90;;;;;;4976245;28;20215;-87
2022/09/30 05:53:01;;;;;;;9.17;6.67;;;9.10;99.90;;;;;;4976670;28;20216;-87
2022/09/30 05:55:29;;;;;;;11.43;6.60;;;9.10;99.90;;;;;;4990458;28;20208;-87
2022/09/30 05:57:55;;;;;;;12.20;7.33;;;9.10;99.90;;;;;;4976126;28;20195;-87
2022/09/30 06:00:22;;;;;;;12.17;7.50;;;9.20;99.90;;;;;;4976865;28;20236;-87
2022/09/30 06:02:50;;;;;;;10.93;7.77;;;9.20;99.90;;;;;;4979698;28;20234;-87
2022/09/30 06:05:17;;;;;;;11.00;7.50;;;9.30;99.90;;;;;;5018395;28;20207;-86
2022/09/30 06:07:43;;;;;;;12.40;8.00;;;9.40;99.90;;;;;;4976808;28;20195;-87
2022/09/30 06:10:11;;;;;;;11.60;7.80;;;9.40;99.90;;;;;;4992711;28;20191;-86
2022/09/30 06:12:38;;;;;;;10.53;7.90;;;9.50;99.90;;;;;;4976752;28;20194;-86
2022/09/30 06:15:04;;;;;;;11.97;7.63;;;9.50;99.90;;;;;;4992659;28;20171;-88
2022/09/30 06:17:42;;;;;;;14.40;10.63;;;9.60;99.90;;;;;;4982496;28;20175;-87
2022/09/30 06:20:09;;;;;;;10.10;8.37;;;9.60;99.90;;;;;;4990449;28;20167;-87
2022/09/30 06:22:38;;;;;;;13.23;9.33;;;9.60;99.90;;;;;;5024288;28;20187;-87
2022/09/30 06:25:05;;;;;;;13.50;8.63;;;9.70;99.90;;;;;;5013428;28;20337;-87
2022/09/30 06:27:32;;;;;;;9.90;7.80;;;9.70;99.90;;;;;;5024655;28;20237;-87
2022/09/30 06:29:59;;;;;;;9.87;7.70;;;9.70;99.90;;;;;;4997721;28;20657;-87
2022/09/30 06:32:25;;;;;;;7.93;7.13;;;9.70;99.90;;;;;;4998954;28;20186;-87
2022/09/30 06:34:54;;;;;;;9.50;7.70;;;9.70;99.90;;;;;;4997306;28;20184;-86
2022/09/30 06:37:21;;;;;;;8.60;7.03;;;9.70;99.90;;;;;;5007238;28;20183;-87
2022/09/30 06:39:49;;;;;;;9.17;7.53;;;9.80;99.90;;;;;;5006731;28;20202;-87
2022/09/30 06:42:15;;;;;;;12.10;7.73;;;9.80;99.90;;;;;;5001263;28;20201;-87
2022/09/30 06:44:41;;;;;;;10.13;8.33;;;9.80;99.90;;;;;;5021138;28;20202;-87
2022/09/30 06:47:08;;;;;;;8.03;7.23;;;9.90;99.90;;;;;;5007811;28;20595;-87
2022/09/30 06:49:35;;;;;;;11.00;7.90;;;9.90;99.90;;;;;;5004923;28;20235;-87
2022/09/30 06:52:01;;;;;;;10.37;7.80;;;9.90;99.90;;;;;;5019214;28;20229;-87
2022/09/30 06:54:27;;;;;;;9.17;7.87;;;9.90;99.90;;;;;;4980000;28;20175;-90
2022/09/30 06:56:56;;;;;;;9.23;8.13;;;9.90;99.90;;;;;;4993450;28;20613;-88
2022/09/30 06:59:25;;;;;;;11.27;8.40;;;10.00;99.90;;;;;;4981011;28;20256;-87
2022/09/30 07:01:51;;;;;;;11.43;8.63;;;10.00;99.90;;;;;;5013645;28;20194;-87
2022/09/30 07:04:17;;;;;;;10.43;8.37;;;10.00;99.90;;;;;;4980843;28;20251;-87
2022/09/30 07:06:43;;;;;;;10.33;8.40;;;10.00;99.90;;;;;;4980248;28;20219;-88
2022/09/30 07:09:10;;;;;;;10.17;8.07;;;10.00;99.90;;;;;;4980182;28;20187;-87
2022/09/30 07:11:36;;;;;;;12.13;9.00;;;10.10;99.90;;;;;;4979184;28;20179;-87
2022/09/30 07:14:03;;;;;;;9.83;8.57;;;10.10;99.90;;;;;;4995337;28;20180;-87
2022/09/30 07:16:36;;;;;;;12.93;9.83;;;10.10;99.90;;;;;;4995364;28;20207;-87
2022/09/30 07:19:03;;;;;;;11.87;9.17;;;10.20;99.90;;;;;;4995369;28;20179;-87
2022/09/30 07:21:30;;;;;;;12.33;9.57;;;10.20;99.90;;;;;;4995151;28;20206;-87
2022/09/30 07:23:57;;;;;;;12.63;9.63;;;10.20;99.90;;;;;;4995049;28;20191;-87
2022/09/30 07:26:24;;;;;;;10.93;8.87;;;10.20;99.90;;;;;;5011225;28;20306;-87
2022/09/30 07:28:51;;;;;;;12.70;9.67;;;10.30;99.90;;;;;;4994559;28;20188;-87
2022/09/30 07:31:23;;;;;;;14.00;10.17;;;10.30;99.90;;;;;;4995099;28;20199;-87
2022/09/30 07:33:55;;;;;;;11.90;9.87;;;10.30;99.90;;;;;;4994923;28;20179;-87
2022/09/30 07:36:28;;;;;;;12.17;10.30;;;10.30;99.90;;;;;;4994893;28;20219;-87
2022/09/30 07:38:55;;;;;;;10.00;8.90;;;10.30;99.90;;;;;;4994819;28;20187;-87
2022/09/30 07:41:26;;;;;;;11.07;9.57;;;10.40;99.90;;;;;;4994839;28;20256;-87
2022/09/30 07:43:55;;;;;;;12.83;9.53;;;10.40;99.90;;;;;;4995043;28;20218;-87
2022/09/30 07:46:24;;;;;;;10.67;9.30;;;10.50;99.90;;;;;;4994270;28;20244;-87
2022/09/30 07:48:53;;;;;;;13.80;11.23;;;10.60;99.90;;;;;;4994537;28;20173;-87
2022/09/30 07:51:21;;;;;;;12.90;10.50;;;10.60;99.90;;;;;;4978310;28;20199;-87
2022/09/30 07:54:00;;;;;;;10.57;8.90;;;10.60;99.90;;;;;;4994279;28;20182;-87
2022/09/30 07:56:26;;;;;;;14.60;11.23;;;10.70;99.90;;;;;;4994608;28;20212;-87
2022/09/30 07:58:54;;;;;;;11.70;10.03;;;10.70;99.90;;;;;;4994456;28;20187;-87
2022/09/30 08:01:21;;;;;;;11.33;9.83;;;10.70;99.90;;;;;;5010510;28;20226;-87
2022/09/30 08:03:47;;;;;;;12.80;9.37;;;10.70;99.90;;;;;;4994203;28;20223;-87
2022/09/30 08:06:17;;;;;;;10.73;9.27;;;10.80;99.90;;;;;;4993940;28;20305;-87
2022/09/30 08:08:44;;;;;;;13.83;9.73;;;10.70;99.90;;;;;;4994280;28;20202;-87
2022/09/30 08:11:12;;;;;;;13.57;10.70;;;10.80;99.90;;;;;;4994523;28;20189;-87
2022/09/30 08:13:39;;;;;;;10.80;9.30;;;10.80;99.90;;;;;;4993753;28;20270;-87
2022/09/30 08:16:05;;;;;;;12.47;10.03;;;10.90;99.90;;;;;;4993981;28;20218;-87
2022/09/30 08:18:31;;;;;;;12.87;10.27;;;10.90;99.90;;;;;;4993995;28;20258;-87
2022/09/30 08:21:00;;;;;;;12.73;10.03;;;10.90;99.90;;;;;;4993899;28;20307;-87
2022/09/30 08:23:28;;;;;;;12.93;9.80;;;11.00;99.90;;;;;;4994049;28;20222;-87
2022/09/30 08:26:10;;;;;;;12.70;10.77;;;11.00;99.90;;;;;;5010260;28;20269;-86
2022/09/30 08:28:37;;;;;;;10.93;9.70;;;11.10;99.90;;;;;;4992597;28;20195;-87
2022/09/30 08:31:11;;;;;;;11.80;9.57;;;11.10;99.90;;;;;;4976094;28;20270;-87
2022/09/30 08:33:38;;;;;;;11.93;9.97;;;11.20;99.90;;;;;;4973850;28;20252;-87
2022/09/30 08:36:28;;;;;;;12.53;10.07;;;11.20;99.90;;;;;;4977571;28;20207;-87
2022/09/30 08:38:55;;;;;;;14.00;11.27;;;11.20;99.90;;;;;;4981730;28;20184;-87
2022/09/30 08:41:41;;;;;;;13.57;11.03;;;11.30;99.90;;;;;;4997060;28;20190;-87
2022/09/30 08:44:42;;;;;;;15.60;11.17;;;11.20;99.90;;;;;;5030328;28;20316;-87
2022/09/30 08:47:26;;;;;;;12.60;11.03;;;11.30;99.90;;;;;;5021341;28;20228;-87
2022/09/30 08:50:25;;;;;;;13.63;11.13;;;11.40;99.90;;;;;;4977963;28;20188;-87
2022/09/30 08:52:56;;;;;;;14.77;11.60;;;11.50;99.90;;;;;;4993481;28;20251;-87
2022/09/30 08:55:35;;;;;;;12.83;11.33;;;11.60;99.90;;;;;;4973759;28;20233;-87
2022/09/30 08:58:03;;;;;;;13.83;10.13;;;11.70;99.90;;;;;;4997073;28;20220;-87
2022/09/30 09:00:33;;;;;;;14.60;10.37;;;11.80;99.90;;;;;;5004715;28;20181;-87
2022/09/30 09:03:02;;;;;;;13.50;11.43;;;11.90;99.90;;;;;;5013021;28;20185;-87
2022/09/30 09:05:53;;;;;;;13.17;10.37;;;12.00;99.90;;;;;;5011428;28;20223;-87
2022/09/30 09:08:58;;;;;;;16.00;10.70;;;12.10;99.90;;;;;;5008539;28;20246;-87
2022/09/30 09:11:40;;;;;;;12.60;10.47;;;12.20;99.90;;;;;;5011183;28;20188;-87
2022/09/30 09:14:27;;;;;;;12.67;10.40;;;12.40;99.90;;;;;;5008854;28;20213;-87
2022/09/30 09:17:14;;;;;;;10.60;9.37;;;12.50;99.90;;;;;;4992164;28;20295;-87
2022/09/30 09:19:56;;;;;;;11.10;9.20;;;12.60;99.90;;;;;;5001021;28;20194;-87
2022/09/30 09:22:23;;;;;;;12.10;9.73;;;12.60;99.90;;;;;;4978207;28;20190;-87
2022/09/30 09:24:52;;;;;;;14.03;10.83;;;12.60;99.90;;;;;;5025333;28;20295;-87
2022/09/30 09:27:36;;;;;;;11.03;9.83;;;12.50;99.90;;;;;;4993257;28;20179;-87
2022/09/30 09:30:11;;;;;;;12.67;10.23;;;12.60;99.90;;;;;;4978152;28;20194;-87
2022/09/30 09:32:37;;;;;;;14.30;11.00;;;12.70;99.90;;;;;;4978406;28;20188;-86
2022/09/30 09:35:24;;;;;;;11.87;10.10;;;12.90;99.90;;;;;;4977823;28;20369;-87
2022/09/30 09:41:05;;;;;;;16.17;9.93;;;13.10;99.90;;;;;;5026941;28;20194;-87
2022/09/30 09:43:37;;;;;;;10.97;9.40;;;13.40;99.90;;;;;;4976534;28;20271;-87
2022/09/30 09:46:18;;;;;;;13.07;9.97;;;13.50;99.90;;;;;;4993045;28;20269;-87
2022/09/30 09:48:45;;;;;;;11.90;9.03;;;13.50;99.90;;;;;;4981086;28;20191;-87
2022/09/30 09:51:27;;;;;;;9.80;8.80;;;13.40;99.90;;;;;;4975135;28;20547;-87
2022/09/30 09:53:57;;;;;;;11.30;8.77;;;13.30;99.90;;;;;;4977408;28;20185;-87
2022/09/30 09:56:27;;;;;;;10.97;8.83;;;13.30;99.90;;;;;;4982524;28;20234;-87
2022/09/30 09:59:11;;;;;;;12.43;9.33;;;13.40;99.90;;;;;;5015537;28;20183;-87
2022/09/30 10:01:50;;;;;;;9.00;8.10;;;13.50;99.90;;;;;;4977517;28;20194;-87
2022/09/30 10:04:26;;;;;;;9.60;8.00;;;13.60;99.90;;;;;;4993636;28;20211;-87
2022/09/30 10:07:11;;;;;;;10.03;8.10;;;13.60;99.90;;;;;;4994891;28;20260;-88
2022/09/30 10:09:40;;;;;;;9.00;7.73;;;13.70;99.90;;;;;;5034450;28;20174;-87
2022/09/30 10:12:26;;;;;;;8.90;7.70;;;13.90;99.90;;;;;;5017091;28;20179;-87
2022/09/30 10:15:10;;;;;;;8.80;7.33;;;13.90;99.90;;;;;;5033647;28;20179;-87
2022/09/30 10:17:53;;;;;;;8.40;6.67;;;14.10;99.90;;;;;;5014872;28;20195;-87
2022/09/30 10:20:33;;;;;;;7.37;6.23;;;14.30;99.90;;;;;;5017047;28;20179;-87
2022/09/30 10:23:20;;;;;;;6.30;5.70;;;14.50;99.90;;;;;;5016597;28;20246;-88
2022/09/30 10:26:02;;;;;;;9.30;6.13;;;14.70;99.90;;;;;;5001016;28;20242;-87
2022/09/30 10:28:32;;;;;;;6.07;5.40;;;14.70;99.90;;;;;;5032684;28;20181;-87
2022/09/30 10:31:16;;;;;;;7.17;6.47;;;14.70;99.90;;;;;;5001202;28;20193;-87
2022/09/30 10:33:56;;;;;;;7.20;5.57;;;14.70;99.90;;;;;;5018579;28;20179;-88
2022/09/30 10:36:31;;;;;;;6.30;4.77;;;14.80;99.90;;;;;;4996310;28;20199;-88
2022/09/30 10:39:15;;;;;;;6.33;5.70;;;15.00;99.90;;;;;;4979696;28;20186;-87
2022/09/30 10:41:43;;;;;;;6.87;6.07;;;15.00;99.90;;;;;;5002069;28;20202;-87
2022/09/30 10:44:20;;;;;;;9.20;6.40;;;14.90;99.90;;;;;;4995531;28;20182;-88
2022/09/30 10:46:54;;;;;;;7.10;5.87;;;14.90;99.90;;;;;;4992265;28;20234;-88
2022/09/30 10:49:44;;;;;;;9.63;5.63;;;14.80;99.90;;;;;;4992726;28;20183;-87
2022/09/30 10:52:23;;;;;;;5.70;4.97;;;15.00;99.90;;;;;;4996837;28;20269;-87
2022/09/30 10:54:59;;;;;;;5.67;3.70;;;15.00;99.90;;;;;;4991235;28;20179;-88
2022/09/30 10:57:32;;;;;;;6.60;4.33;;;15.10;99.90;;;;;;4981527;28;20175;-87
2022/09/30 11:00:14;;;;;;;6.77;4.50;;;15.20;99.90;;;;;;5005250;28;20179;-87
2022/09/30 11:02:53;;;;;;;5.30;3.93;;;15.20;99.90;;;;;;5012376;28;20195;-87
2022/09/30 11:05:34;;;;;;;5.63;4.30;;;15.20;99.90;;;;;;5027879;28;20293;-87
2022/09/30 11:08:29;;;;;;;5.57;4.57;;;15.20;99.90;;;;;;4996323;28;20171;-88
2022/09/30 11:11:23;;;;;;;6.17;3.93;;;15.30;99.90;;;;;;5008213;28;20277;-88
2022/09/30 11:14:14;;;;;;;5.03;4.10;;;15.40;99.90;;;;;;4985204;28;20194;-87
2022/09/30 11:17:37;;;;;;;5.50;3.80;;;15.50;99.90;;;;;;5002321;28;20215;-88
2022/09/30 11:20:24;;;;;;;6.10;4.00;;;15.70;99.90;;;;;;4932752;29;20192;-88
2022/09/30 11:23:06;;;;;;;6.33;4.60;;;16.00;99.90;;;;;;4934241;29;20343;-88
2022/09/30 11:25:47;;;;;;;8.23;5.40;;;16.20;99.90;;;;;;5016790;28;20233;-87
2022/09/30 11:28:28;;;;;;;6.33;4.37;;;16.40;99.90;;;;;;4980807;28;20171;-88
2022/09/30 11:31:05;;;;;;;5.23;4.20;;;16.50;99.90;;;;;;4993994;28;20180;-88
2022/09/30 11:33:49;;;;;;;6.63;4.07;;;16.70;99.90;;;;;;4993583;28;20211;-88
2022/09/30 11:36:21;;;;;;;3.93;3.20;;;16.90;99.90;;;;;;5004285;28;20207;-88
2022/09/30 11:38:53;;;;;;;5.00;3.55;;;17.00;99.90;;;;;;4980632;28;20546;-88
2022/09/30 11:41:41;;;;;;;3.75;2.80;;;17.10;99.90;;;;;;5013443;28;20179;-88
2022/09/30 11:44:25;;;;;;;4.20;2.97;;;17.20;99.90;;;;;;4996997;28;20218;-88
2022/09/30 11:47:03;;;;;;;4.55;2.70;;;17.20;99.90;;;;;;5012830;28;20222;-88
2022/09/30 11:49:52;;;;;;;3.80;2.13;;;17.20;99.90;;;;;;4997074;28;20217;-88
2022/09/30 11:52:38;;;;;;;3.70;2.15;;;17.30;99.90;;;;;;4996147;28;20191;-88
2022/09/30 11:55:26;;;;;;;2.95;1.70;;;17.40;99.90;;;;;;5014027;28;20545;-88
2022/09/30 11:58:07;;;;;;;2.15;1.75;;;17.30;99.90;;;;;;5013251;28;20250;-88
2022/09/30 12:00:39;;;;;;;2.53;1.60;;;17.40;99.90;;;;;;5021023;28;20181;-88
2022/09/30 12:03:12;;;;;;;2.53;1.83;;;17.40;99.90;;;;;;5021754;28;20206;-88
2022/09/30 12:05:43;;;;;;;3.33;2.28;;;17.40;99.90;;;;;;4983982;28;20206;-88
2022/09/30 12:08:18;;;;;;;3.75;2.10;;;17.00;99.90;;;;;;4996593;28;20179;-88
2022/09/30 12:10:53;;;;;;;2.90;2.08;;;16.50;99.90;;;;;;5012982;28;20195;-88
2022/09/30 12:13:37;;;;;;;2.97;1.92;;;16.30;99.90;;;;;;5012499;28;20205;-88
2022/09/30 12:16:10;;;;;;;3.35;2.30;;;16.20;99.90;;;;;;4969927;28;20210;-88
2022/09/30 12:18:49;;;;;;;2.85;2.00;;;16.10;99.90;;;;;;4996205;28;20179;-88
2022/09/30 12:21:23;;;;;;;3.03;2.10;;;16.20;99.90;;;;;;5012250;28;20206;-88
2022/09/30 12:24:03;;;;;;;3.53;2.50;;;16.20;99.90;;;;;;4995868;28;20309;-88
2022/09/30 12:26:32;;;;;;;2.73;2.13;;;16.30;99.90;;;;;;5024005;28;20211;-88
2022/09/30 12:32:07;;;;;;;3.00;1.98;;;16.40;99.90;;;;;;4996162;28;20176;-87
2022/09/30 12:35:00;;;;;;;4.45;2.10;;;16.60;99.90;;;;;;4980052;28;20192;-85
2022/09/30 12:37:33;;;;;;;2.47;1.63;;;16.90;99.90;;;;;;5005631;28;20175;-91
2022/09/30 12:40:21;;;;;;;2.50;1.42;;;17.00;99.90;;;;;;4981096;28;20175;-88
2022/09/30 12:43:14;;;;;;;3.20;1.70;;;17.20;99.90;;;;;;4996883;28;20183;-88
2022/09/30 12:46:25;;;;;;;2.83;1.80;;;17.30;99.90;;;;;;4992180;28;20231;-88
2022/09/30 12:49:00;;;;;;;2.58;1.55;;;17.70;99.90;;;;;;4988099;28;20187;-89
2022/09/30 12:51:48;;;;;;;3.22;1.50;;;17.90;99.90;;;;;;5015856;28;20175;-88
2022/09/30 12:54:30;;;;;;;2.75;1.50;;;18.20;99.90;;;;;;4999508;28;20194;-89
2022/09/30 12:57:01;;;;;;;3.25;1.60;;;18.20;99.90;;;;;;4983459;28;20205;-88
2022/09/30 12:59:32;;;;;;;1.55;1.45;;;18.20;99.90;;;;;;4982713;28;20203;-88
2022/09/30 13:02:01;;;;;;;1.40;1.30;;;18.10;99.90;;;;;;4998346;28;20176;-89
2022/09/30 13:04:33;;;;;;;2.30;1.40;;;18.20;99.90;;;;;;5014313;28;20179;-89
2022/09/30 13:07:02;;;;;;;1.90;1.40;;;18.10;99.90;;;;;;4998814;28;20225;-89
2022/09/30 13:10:21;;;;;;;2.08;1.20;;;18.20;99.90;;;;;;5015857;28;20207;-89
2022/09/30 13:13:07;;;;;;;1.58;1.27;;;18.10;99.90;;;;;;4997793;28;20186;-89
2022/09/30 13:15:35;;;;;;;2.55;1.10;;;18.00;99.90;;;;;;4983191;28;20259;-89
2022/09/30 13:18:19;;;;;;;1.75;1.27;;;17.90;99.90;;;;;;5017733;28;20183;-89
2022/09/30 13:20:56;;;;;;;1.48;1.33;;;17.70;99.90;;;;;;5013057;28;20191;-82
2022/09/30 13:23:45;;;;;;;1.92;1.15;;;17.50;99.90;;;;;;5015953;28;20183;-82
2022/09/30 13:26:37;;;;;;;3.72;1.75;;;17.30;99.90;;;;;;4988501;28;20723;-83
2022/09/30 13:29:04;;;;;;;2.88;1.50;;;17.20;99.90;;;;;;5020618;28;20264;-82
2022/09/30 13:32:03;;;;;;;1.40;1.30;;;17.00;99.90;;;;;;4990858;28;20183;-82
2022/09/30 13:34:53;;;;;;;2.25;1.25;;;17.00;99.90;;;;;;4987044;28;20175;-83